Prestwick Rnas, United Kingdom

9:43 AM BST on September 29, 2016 (GMT +0100)
Crummieholm Gardens | | Change Station

Elev 95 ft 55.55 °N, 4.63 °W | Updated 36 seconds ago

Light Rain Showers
Light Showers Rain
53.4 °F
Feels Like 53.4 °F
N
7.5
Wind Variable Wind from West
Gusts 14.9 mph

Today
High -- | Low -- °F
--% Chance of Precip.
Yesterday
High -- | Low -- °F
Precip. -- in
Pressure 29.62 in
Visibility 5.0 miles
Clouds Few 1500 ft
Scattered Clouds 1800 ft
Mostly Cloudy 3000 ft
Dew Point 50 °F
Humidity 87%
Rainfall 0.00 in
Snow Depth Not available.
7:17 AM 6:58 PM
Waning Crescent, 3% visible
METAR EGPK 290820Z 26022G32KT 8000 -SHRA FEW015 SCT018 BKN030 13/09 Q1003
Pressure 29.62 in
Visibility 5.0 miles
Clouds Few 1500 ft
Scattered Clouds 1800 ft
Mostly Cloudy 3000 ft
Dew Point 50 °F
Humidity 87%
Rainfall 0.00 in
Snow Depth Not available.
7:17 AM 6:58 PM
Waning Crescent, 3% visible
METAR EGPK 290820Z 26022G32KT 8000 -SHRA FEW015 SCT018 BKN030 13/09 Q1003

10-Day Weather Forecast

×

Almanac

Astronomy

Sep. 29, 2016 Rise Set
Actual Time
Civil Twilight
Nautical Twilight
Astronomical Twilight
Moon
Length of Visible Light
Length of Day
Tomorrow will be .
, % of the Moon is Illuminated

Today's Extremes

Country Highs Country Lows

Community

WunderPhotos

Upload Photos

1,942,446 photos uploaded!

WunderBlog® & News

Nearby

Air Quality

  Air Quality AQ Index Pollutant
Not available.

Snow Depth

Station Depth Elevation

Earthquake Activity

City Distance Mag. Time & Date
Minimum magnitude displayed is 2.5.

Coastal Water Temperatures

Place Temperature

Stations

Nearby Weather Stations

Station Location Temp. Windchill Dew Point Humidity Wind Precip. Elev Updated Type